Time;durP1;ratioP1;P1;durP2;ratioP2;P2;SDS_P1;SDS_P2;PMS_P1;PMS_P2;Temp;Humidity;BMP_temperature;BMP_pressure;BME280_temperature;BME280_humidity;BME280_pressure;Samples;Min_cycle;Max_cycle;Signal;HPM_P1;HPM_P2
2023/03/29 00:01:41;;;;;;;3.10;1.00;;;;;;;-1.27;100.00;98570.45;106826;1281;22528;-68
2023/03/29 00:04:12;;;;;;;2.20;1.00;;;;;;;-1.26;100.00;98576.69;109972;1281;22149;-68
2023/03/29 00:06:41;;;;;;;2.10;0.70;;;;;;;-1.20;100.00;98573.27;109971;1281;23306;-66
2023/03/29 00:09:12;;;;;;;2.90;1.00;;;;;;;-1.18;100.00;98579.73;109886;1281;22917;-68
2023/03/29 00:11:43;;;;;;;1.20;0.60;;;;;;;-1.23;100.00;98577.71;109973;1281;22276;-68
2023/03/29 00:14:12;;;;;;;1.70;0.90;;;;;;;-1.20;100.00;98574.19;109974;1281;22321;-69
2023/03/29 00:16:45;;;;;;;1.50;0.80;;;;;;;-1.21;100.00;98587.61;109313;1281;23880;-68
2023/03/29 00:19:14;;;;;;;1.40;0.80;;;;;;;-1.24;100.00;98578.77;107731;1281;22548;-67
2023/03/29 00:21:42;;;;;;;1.50;0.80;;;;;;;-1.19;100.00;98578.22;106848;1281;24223;-67
2023/03/29 00:24:10;;;;;;;1.90;0.80;;;;;;;-1.18;100.00;98581.27;106854;1281;22569;-67
2023/03/29 00:26:39;;;;;;;2.10;0.80;;;;;;;-1.22;100.00;98582.77;106945;1281;25425;-67
2023/03/29 00:29:13;;;;;;;1.50;0.80;;;;;;;-1.21;100.00;98585.63;106818;1281;25321;-68
2023/03/29 00:31:50;;;;;;;2.30;0.70;;;;;;;-1.18;100.00;98597.20;106979;1281;26504;-66
2023/03/29 00:34:19;;;;;;;2.50;0.80;;;;;;;-1.19;100.00;98600.11;106929;1281;22591;-67
2023/03/29 00:36:51;;;;;;;2.50;0.80;;;;;;;-1.22;100.00;98609.10;106938;1281;22516;-68
2023/03/29 00:39:20;;;;;;;2.30;1.00;;;;;;;-1.18;100.00;98602.33;106908;1281;25210;-68
2023/03/29 00:41:55;;;;;;;4.60;1.00;;;;;;;-1.22;100.00;98601.38;106952;1281;25396;-68
2023/03/29 00:44:55;;;;;;;1.80;0.90;;;;;;;-1.24;100.00;98602.96;106735;1281;25325;-67
2023/03/29 00:47:43;;;;;;;1.60;0.90;;;;;;;-1.18;100.00;98598.70;106785;1281;25336;-68
2023/03/29 00:50:24;;;;;;;1.80;0.80;;;;;;;-1.21;100.00;98602.02;106789;1281;24251;-68
2023/03/29 00:53:01;;;;;;;3.10;0.80;;;;;;;-1.18;100.00;98598.21;106956;1281;25508;-67
2023/03/29 00:55:52;;;;;;;1.70;0.80;;;;;;;-1.15;100.00;98600.59;106937;1281;22585;-67
2023/03/29 00:58:37;;;;;;;2.90;0.90;;;;;;;-1.20;100.00;98603.92;106903;1281;25349;-70
2023/03/29 01:01:09;;;;;;;2.00;0.80;;;;;;;-1.22;100.00;98597.89;106878;1281;24220;-68
2023/03/29 01:03:45;;;;;;;2.20;0.70;;;;;;;-1.18;100.00;98596.77;106906;1281;25321;-68
2023/03/29 01:06:15;;;;;;;1.50;0.80;;;;;;;-1.19;100.00;98592.99;106851;1281;25329;-69
2023/03/29 01:08:47;;;;;;;2.70;0.70;;;;;;;-1.17;100.00;98596.59;106681;1281;22535;-68
2023/03/29 01:11:17;;;;;;;1.70;0.70;;;;;;;-1.16;100.00;98596.94;106561;1281;24183;-69
2023/03/29 01:13:50;;;;;;;2.20;0.80;;;;;;;-1.15;100.00;98599.61;106320;1281;22535;-68
2023/03/29 01:16:24;;;;;;;3.10;1.10;;;;;;;-1.15;100.00;98604.45;106497;1281;23352;-69
2023/03/29 01:18:53;;;;;;;2.50;0.80;;;;;;;-1.20;100.00;98607.60;106536;1272;22538;-68
2023/03/29 01:21:38;;;;;;;1.30;0.70;;;;;;;-1.21;100.00;98611.10;106579;1281;22540;-68
2023/03/29 01:24:31;;;;;;;2.40;1.00;;;;;;;-1.17;100.00;98615.08;106656;1281;23008;-68
2023/03/29 01:27:14;;;;;;;2.30;1.10;;;;;;;-1.20;100.00;98620.09;106747;1281;22622;-68
2023/03/29 01:29:45;;;;;;;1.50;0.70;;;;;;;-1.21;100.00;98620.39;106711;1281;25249;-68
2023/03/29 01:32:41;;;;;;;1.60;0.80;;;;;;;-1.18;100.00;98626.14;109965;1281;22305;-67
2023/03/29 01:37:48;;;;;;;1.30;0.60;;;;;;;-1.17;100.00;98632.56;104163;1306;545733;-67
2023/03/29 01:40:17;;;;;;;1.90;0.90;;;;;;;-1.16;100.00;98635.64;106200;1288;22918;-66
2023/03/29 01:43:37;;;;;;;1.90;0.70;;;;;;;-1.14;100.00;98643.92;106233;1288;23273;-67
2023/03/29 01:46:08;;;;;;;1.70;0.80;;;;;;;-1.21;100.00;98649.68;106036;1288;22526;-67
2023/03/29 01:48:49;;;;;;;2.30;0.70;;;;;;;-1.20;100.00;98644.61;106218;1288;22564;-66
2023/03/29 01:51:20;;;;;;;1.30;0.50;;;;;;;-1.17;100.00;98648.40;106356;1286;259027;-66
2023/03/29 01:53:58;;;;;;;1.80;0.70;;;;;;;-1.15;100.00;98653.10;106526;1286;25566;-66
2023/03/29 01:56:33;;;;;;;4.10;0.90;;;;;;;-1.21;100.00;98654.03;106546;1286;25434;-66
2023/03/29 01:59:03;;;;;;;1.60;0.70;;;;;;;-1.20;100.00;98657.22;106546;1286;22780;-66
2023/03/29 02:01:37;;;;;;;2.20;0.70;;;;;;;-1.16;100.00;98663.70;106465;1286;22556;-66
2023/03/29 02:04:09;;;;;;;2.00;0.70;;;;;;;-1.20;100.00;98664.13;106504;1286;25202;-65
2023/03/29 02:06:38;;;;;;;2.20;0.70;;;;;;;-1.22;100.00;98676.34;106779;1286;24330;-66
2023/03/29 02:09:07;;;;;;;2.60;0.90;;;;;;;-1.18;100.00;98678.15;106491;1286;25353;-66
2023/03/29 02:11:35;;;;;;;1.40;0.60;;;;;;;-1.19;100.00;98679.94;106278;1286;25357;-66
2023/03/29 02:14:09;;;;;;;1.30;0.50;;;;;;;-1.23;100.00;98680.30;106262;1286;26678;-67
2023/03/29 02:16:38;;;;;;;1.60;0.60;;;;;;;-1.21;100.00;98689.40;106538;1286;24238;-66
2023/03/29 02:19:06;;;;;;;2.50;0.90;;;;;;;-1.16;100.00;98690.58;106449;1286;25344;-66
2023/03/29 02:21:48;;;;;;;2.20;0.90;;;;;;;-1.18;100.00;98696.70;106658;1286;26310;-66
2023/03/29 02:24:17;;;;;;;2.00;0.70;;;;;;;-1.18;100.00;98704.29;106717;1286;24972;-66
2023/03/29 02:26:50;;;;;;;3.10;1.00;;;;;;;-1.15;100.00;98707.33;106447;1286;25528;-66
2023/03/29 02:29:19;;;;;;;3.10;0.90;;;;;;;-1.18;100.00;98712.83;106511;1286;22701;-67
2023/03/29 02:31:51;;;;;;;1.70;0.80;;;;;;;-1.20;100.00;98714.54;106498;1286;25356;-66
2023/03/29 02:34:28;;;;;;;1.50;0.60;;;;;;;-1.15;100.00;98718.31;106654;1286;25398;-66
2023/03/29 02:37:17;;;;;;;1.00;0.60;;;;;;;-1.16;100.00;98721.18;106484;1286;23004;-66
2023/03/29 02:39:47;;;;;;;1.80;0.80;;;;;;;-1.20;100.00;98724.94;106570;1286;25372;-67
2023/03/29 02:42:16;;;;;;;2.40;0.60;;;;;;;-1.17;100.00;98726.98;106529;1286;23431;-67
2023/03/29 02:44:45;;;;;;;2.00;0.60;;;;;;;-1.14;100.00;98726.15;106361;1286;23243;-67
2023/03/29 02:47:27;;;;;;;2.70;1.00;;;;;;;-1.17;100.00;98733.13;106482;1286;22685;-67
2023/03/29 02:49:55;;;;;;;2.20;0.70;;;;;;;-1.22;100.00;98729.44;106374;1286;22532;-67
2023/03/29 02:52:32;;;;;;;1.50;0.70;;;;;;;-1.16;100.00;98737.25;106561;1286;25340;-66
2023/03/29 02:55:01;;;;;;;1.50;0.80;;;;;;;-1.13;100.00;98741.58;110062;1279;22422;-67
2023/03/29 02:57:34;;;;;;;2.80;1.00;;;;;;;-1.14;100.00;98742.13;110039;1279;23004;-67
2023/03/29 03:00:05;;;;;;;1.60;0.70;;;;;;;-1.16;100.00;98747.34;110060;1279;22229;-67
2023/03/29 03:02:34;;;;;;;2.80;1.00;;;;;;;-1.11;100.00;98739.01;110070;1279;22231;-67
2023/03/29 03:05:08;;;;;;;1.80;1.00;;;;;;;-1.11;100.00;98747.06;110074;1279;22427;-67
2023/03/29 03:07:39;;;;;;;1.30;0.80;;;;;;;-1.14;100.00;98744.52;110085;1279;22281;-67
2023/03/29 03:10:08;;;;;;;2.20;0.90;;;;;;;-1.11;100.00;98748.09;108116;1279;25497;-66
2023/03/29 03:12:38;;;;;;;2.50;0.90;;;;;;;-1.06;100.00;98748.08;107018;1279;22596;-65
2023/03/29 03:15:07;;;;;;;2.40;1.00;;;;;;;-1.09;100.00;98755.15;107111;1279;23397;-66
2023/03/29 03:17:38;;;;;;;2.30;1.10;;;;;;;-1.16;100.00;98756.81;107106;1279;25378;-66
2023/03/29 03:20:11;;;;;;;1.90;0.90;;;;;;;-1.20;100.00;98754.52;107269;1279;22926;-65
2023/03/29 03:22:41;;;;;;;2.30;0.80;;;;;;;-1.16;100.00;98757.10;107050;1278;22527;-66
2023/03/29 03:25:11;;;;;;;3.20;1.10;;;;;;;-1.16;100.00;98758.62;106979;1279;25422;-66
2023/03/29 03:27:40;;;;;;;1.70;0.80;;;;;;;-1.21;100.00;98766.36;106999;1279;22538;-66
2023/03/29 03:30:09;;;;;;;1.50;0.60;;;;;;;-1.19;100.00;98776.57;107374;1275;24266;-66
2023/03/29 03:32:56;;;;;;;2.90;1.30;;;;;;;-1.19;100.00;98775.08;107450;1275;25389;-66
2023/03/29 03:35:46;;;;;;;4.20;1.90;;;;;;;-1.26;100.00;98775.89;107216;1275;24189;-66
2023/03/29 03:38:19;;;;;;;3.00;1.40;;;;;;;-1.28;100.00;98775.50;107282;1275;26306;-66
2023/03/29 03:40:56;;;;;;;3.10;1.20;;;;;;;-1.24;100.00;98780.30;107216;1275;22520;-65
2023/03/29 03:43:25;;;;;;;3.40;1.10;;;;;;;-1.23;100.00;98782.10;107208;1275;22759;-64
2023/03/29 03:45:55;;;;;;;2.40;1.00;;;;;;;-1.27;100.00;98785.55;107377;1275;22617;-65
2023/03/29 03:48:25;;;;;;;2.00;0.80;;;;;;;-1.32;100.00;98790.73;107128;1275;22573;-65
2023/03/29 03:51:08;;;;;;;2.50;1.00;;;;;;;-1.30;100.00;98794.58;107387;1275;25423;-65
2023/03/29 03:53:37;;;;;;;2.60;1.00;;;;;;;-1.28;100.00;98800.60;107309;1275;25406;-65
2023/03/29 03:56:15;;;;;;;2.80;1.20;;;;;;;-1.33;100.00;98799.20;107525;1275;24385;-65
2023/03/29 03:59:06;;;;;;;2.10;1.10;;;;;;;-1.39;100.00;98802.91;107496;1275;25353;-65
2023/03/29 04:01:44;;;;;;;2.80;1.40;;;;;;;-1.37;100.00;98807.73;107455;1275;23226;-65
2023/03/29 04:04:19;;;;;;;4.40;1.70;;;;;;;-1.33;100.00;98804.70;107297;1275;23293;-65
2023/03/29 04:07:11;;;;;;;3.90;1.60;;;;;;;-1.38;100.00;98801.95;107322;1274;22557;-66
2023/03/29 04:09:44;;;;;;;4.70;1.20;;;;;;;-1.43;100.00;98799.28;107564;1274;23236;-66
2023/03/29 04:12:20;;;;;;;;;;;;;;;-1.40;100.00;98802.59;107545;1275;25265;-65
2023/03/29 04:14:50;;;;;;;2.50;1.40;;;;;;;-1.40;100.00;98802.26;107518;1275;25385;-65
2023/03/29 04:17:22;;;;;;;3.20;1.60;;;;;;;-1.48;100.00;98810.48;107395;1275;22520;-66
2023/03/29 04:20:10;;;;;;;3.10;1.60;;;;;;;-1.52;100.00;98811.67;107421;1275;22555;-65
2023/03/29 04:22:40;;;;;;;3.30;1.50;;;;;;;-1.48;100.00;98809.22;107441;1275;25334;-65
2023/03/29 04:25:09;;;;;;;3.80;1.40;;;;;;;-1.49;100.00;98813.83;107268;1275;25278;-66
2023/03/29 04:27:47;;;;;;;3.70;1.50;;;;;;;-1.52;100.00;98816.19;107366;1275;25511;-65
2023/03/29 04:30:35;;;;;;;4.90;1.70;;;;;;;-1.47;100.00;98823.13;107324;1257;22519;-66
2023/03/29 04:33:16;;;;;;;5.00;1.60;;;;;;;-1.51;100.00;98823.45;107362;1275;25372;-65
2023/03/29 04:35:48;;;;;;;2.60;1.50;;;;;;;-1.55;100.00;98818.71;107358;1275;22523;-65
2023/03/29 04:38:21;;;;;;;4.70;1.50;;;;;;;-1.52;100.00;98831.05;107245;1275;24400;-66
2023/03/29 04:40:50;;;;;;;2.60;1.30;;;;;;;-1.48;100.00;98834.83;107545;1275;23006;-65
2023/03/29 04:43:28;;;;;;;3.60;1.50;;;;;;;-1.52;100.00;98841.02;107286;1275;25373;-66
2023/03/29 04:46:31;;;;;;;4.60;1.50;;;;;;;-1.55;100.00;98838.34;107341;1275;25331;-65
2023/03/29 04:49:24;;;;;;;2.60;1.30;;;;;;;-1.50;100.00;98847.43;110458;1275;22969;-66
2023/03/29 04:51:54;;;;;;;3.20;1.30;;;;;;;-1.52;100.00;98848.06;110462;1274;22937;-67
2023/03/29 04:54:25;;;;;;;5.10;1.50;;;;;;;-1.53;100.00;98846.65;110472;1275;22817;-66
2023/03/29 04:57:12;;;;;;;2.60;1.20;;;;;;;-1.47;100.00;98846.25;110526;1275;22157;-66
2023/03/29 04:59:47;;;;;;;3.70;1.30;;;;;;;-1.48;100.00;98842.19;108950;1275;24247;-66
2023/03/29 05:02:35;;;;;;;2.10;1.10;;;;;;;-1.52;100.00;98841.44;107264;1275;25529;-66
2023/03/29 05:05:04;;;;;;;4.60;1.30;;;;;;;-1.50;100.00;98843.84;109425;1275;25335;-66
2023/03/29 05:07:34;;;;;;;5.00;1.50;;;;;;;-1.53;100.00;98842.48;107421;1275;23267;-66
2023/03/29 05:10:03;;;;;;;2.60;1.20;;;;;;;-1.56;100.00;98842.16;107036;1275;25287;-66
2023/03/29 05:12:32;;;;;;;3.40;1.60;;;;;;;-1.52;100.00;98843.16;107220;1275;26512;-66
2023/03/29 05:15:04;;;;;;;2.50;1.40;;;;;;;-1.48;100.00;98843.95;107087;1274;26715;-66
2023/03/29 05:17:34;;;;;;;4.60;1.80;;;;;;;-1.53;100.00;98844.03;107493;1275;22653;-67
2023/03/29 05:20:11;;;;;;;2.80;1.40;;;;;;;-1.56;100.00;98846.18;107065;1275;22524;-66
2023/03/29 05:22:48;;;;;;;3.00;1.60;;;;;;;-1.50;100.00;98852.22;107359;1275;25232;-66
2023/03/29 05:25:36;;;;;;;5.50;2.00;;;;;;;-1.44;100.00;98850.70;107418;1275;25479;-66
2023/03/29 05:28:05;;;;;;;4.00;2.10;;;;;;;-1.46;100.00;98848.59;107237;1275;22552;-66
2023/03/29 05:30:34;;;;;;;4.80;2.00;;;;;;;-1.49;100.00;98854.04;107246;1275;22582;-66
2023/03/29 05:33:15;;;;;;;3.40;1.30;;;;;;;-1.45;100.00;98858.47;107314;1275;26606;-66
2023/03/29 05:35:44;;;;;;;3.80;1.50;;;;;;;-1.37;100.00;98864.21;107263;1275;22566;-66
2023/03/29 05:38:13;;;;;;;4.00;1.50;;;;;;;-1.39;100.00;98863.33;107226;1275;25353;-66
2023/03/29 05:40:41;;;;;;;3.50;1.60;;;;;;;-1.43;100.00;98870.13;107421;1275;24205;-66
2023/03/29 05:43:20;;;;;;;4.10;1.80;;;;;;;-1.40;100.00;98868.42;107352;1275;25335;-66
2023/03/29 05:45:48;;;;;;;4.30;1.60;;;;;;;-1.34;100.00;98871.30;107334;1275;22648;-66
2023/03/29 05:48:17;;;;;;;4.30;2.10;;;;;;;-1.35;100.00;98871.10;107302;1275;22576;-66
2023/03/29 05:50:50;;;;;;;3.70;1.80;;;;;;;-1.38;100.00;98867.92;107098;1275;22572;-66
2023/03/29 05:53:20;;;;;;;4.00;1.90;;;;;;;-1.33;100.00;98867.88;107212;1275;22549;-67
2023/03/29 05:55:49;;;;;;;3.30;1.60;;;;;;;-1.33;100.00;98868.53;107182;1275;25519;-67
2023/03/29 05:58:20;;;;;;;3.70;1.80;;;;;;;-1.32;100.00;98875.11;107384;1275;25393;-67
2023/03/29 06:00:50;;;;;;;3.00;1.50;;;;;;;-1.25;100.00;98881.90;107470;1275;25451;-66
2023/03/29 06:03:47;;;;;;;4.40;1.60;;;;;;;-1.24;100.00;98888.77;107201;1275;25451;-66
2023/03/29 06:06:17;;;;;;;3.40;1.40;;;;;;;-1.26;100.00;98886.43;107412;1275;24383;-66
2023/03/29 06:08:46;;;;;;;2.80;1.30;;;;;;;-1.19;100.00;98888.67;107174;1275;23899;-66
2023/03/29 06:11:33;;;;;;;5.20;1.90;;;;;;;-1.20;100.00;98898.75;110436;1275;22224;-64
2023/03/29 06:14:23;;;;;;;4.30;1.50;;;;;;;-1.22;100.00;98901.07;110521;1275;22835;-66
2023/03/29 06:17:03;;;;;;;3.10;1.50;;;;;;;-1.16;100.00;98906.58;110372;1275;22239;-65
2023/03/29 06:19:32;;;;;;;3.70;1.70;;;;;;;-1.12;100.00;98907.09;110435;1275;22238;-66
2023/03/29 06:22:01;;;;;;;4.70;1.90;;;;;;;-1.12;100.00;98912.99;110523;1275;22277;-65
2023/03/29 06:24:29;;;;;;;4.90;2.10;;;;;;;-1.15;100.00;98909.65;110453;1275;22271;-65
2023/03/29 06:27:02;;;;;;;4.30;1.60;;;;;;;-1.10;100.00;98920.99;110460;1275;22221;-65
2023/03/29 06:29:30;;;;;;;3.10;1.60;;;;;;;-1.08;100.00;98919.91;110475;1275;22411;-65
2023/03/29 06:32:01;;;;;;;2.80;1.60;;;;;;;-1.11;100.00;98924.83;110445;1275;22227;-64
2023/03/29 06:34:48;;;;;;;3.10;1.80;;;;;;;-1.06;100.00;98935.39;110473;1275;22432;-65
2023/03/29 06:37:31;;;;;;;6.60;2.20;;;;;;;-0.99;100.00;98938.80;108712;1275;25216;-65
2023/03/29 06:40:21;;;;;;;3.90;1.70;;;;;;;-0.99;100.00;98943.85;106734;1275;22749;-65
2023/03/29 06:42:56;;;;;;;3.00;1.50;;;;;;;-0.97;100.00;98947.33;106996;1275;25369;-65
2023/03/29 06:45:35;;;;;;;3.60;1.50;;;;;;;-0.92;100.00;98951.64;106850;1275;26588;-65
2023/03/29 06:48:06;;;;;;;2.80;1.50;;;;;;;-0.90;100.00;98946.22;106818;1275;24011;-65
2023/03/29 06:50:37;;;;;;;3.00;1.60;;;;;;;-0.90;100.00;98947.98;106963;1275;25406;-65
2023/03/29 06:53:12;;;;;;;2.50;1.30;;;;;;;-0.87;100.00;98949.67;106855;1275;25446;-66
2023/03/29 06:55:41;;;;;;;4.40;1.70;;;;;;;-0.79;100.00;98947.31;106876;1275;25974;-65
2023/03/29 06:58:24;;;;;;;3.20;1.60;;;;;;;-0.79;100.00;98947.81;106773;1275;25362;-65
2023/03/29 07:00:59;;;;;;;3.30;1.50;;;;;;;-0.80;100.00;98947.23;106982;1275;22520;-65
2023/03/29 07:03:38;;;;;;;2.30;1.40;;;;;;;-0.72;100.00;98954.90;106904;1275;23779;-67
2023/03/29 07:06:11;;;;;;;2.90;1.40;;;;;;;-0.69;100.00;98954.92;107507;1274;22652;-66
2023/03/29 07:08:43;;;;;;;3.00;1.70;;;;;;;-0.69;100.00;98965.81;107345;1274;25275;-66
2023/03/29 07:11:27;;;;;;;3.50;1.40;;;;;;;-0.69;100.00;98971.04;107264;1275;25253;-66
2023/03/29 07:13:58;;;;;;;3.10;1.40;;;;;;;-0.65;100.00;98972.98;107518;1275;25414;-66
2023/03/29 07:16:27;;;;;;;3.30;1.50;;;;;;;-0.67;100.00;98977.73;107280;1275;22731;-65
2023/03/29 07:19:16;;;;;;;3.50;1.60;;;;;;;-0.72;100.00;98982.41;107165;1275;25466;-65
2023/03/29 07:22:17;;;;;;;2.60;1.60;;;;;;;-0.73;100.00;98991.27;107335;1275;26521;-64
2023/03/29 07:24:51;;;;;;;3.00;1.50;;;;;;;-0.68;100.00;98993.83;107299;1275;25366;-65
2023/03/29 07:27:19;;;;;;;3.20;1.80;;;;;;;-0.70;100.00;98995.14;107214;1274;23150;-65
2023/03/29 07:29:50;;;;;;;4.00;1.90;;;;;;;-0.71;100.00;98997.98;107318;1274;22540;-65
2023/03/29 07:32:18;;;;;;;3.00;1.80;;;;;;;-0.68;100.00;98997.64;107323;1275;24372;-65
2023/03/29 07:35:20;;;;;;;2.50;1.50;;;;;;;-0.65;100.00;99006.17;107046;1275;22594;-65
2023/03/29 07:38:08;;;;;;;4.00;1.70;;;;;;;-0.65;100.00;99017.02;107440;1275;22521;-65
2023/03/29 07:40:38;;;;;;;4.00;2.10;;;;;;;-0.57;100.00;99019.80;107387;1275;22570;-65
2023/03/29 07:43:29;;;;;;;4.00;2.00;;;;;;;-0.55;100.00;99028.47;107194;1275;25356;-66
2023/03/29 07:46:04;;;;;;;3.70;1.70;;;;;;;-0.61;100.00;99039.57;107300;1274;23087;-67
2023/03/29 07:48:36;;;;;;;2.70;1.60;;;;;;;-0.62;100.00;99037.11;107371;1275;22911;-66
2023/03/29 07:51:14;;;;;;;3.20;1.60;;;;;;;-0.57;100.00;99039.09;107204;1275;24392;-66
2023/03/29 07:53:44;;;;;;;3.20;1.80;;;;;;;-0.59;100.00;99038.82;107387;1275;22616;-66
2023/03/29 07:56:30;;;;;;;2.90;1.60;;;;;;;-0.63;100.00;99039.67;107338;1275;22527;-66
2023/03/29 07:59:11;;;;;;;4.60;2.00;;;;;;;-0.54;100.00;99045.02;107212;1275;25275;-67
2023/03/29 08:01:41;;;;;;;5.40;2.40;;;;;;;-0.45;100.00;99041.30;107297;1275;25335;-66
2023/03/29 08:04:30;;;;;;;3.50;2.00;;;;;;;-0.42;100.00;99037.37;107285;1275;26624;-66
2023/03/29 09:04:44;;;;;;;4.90;2.90;;;;;;;-0.90;100.00;99121.64;103579;1313;544906;-65
2023/03/29 09:07:26;;;;;;;5.30;2.60;;;;;;;-0.69;100.00;99133.96;109711;1286;23014;-66
2023/03/29 09:09:58;;;;;;;4.90;2.40;;;;;;;-0.47;100.00;99134.50;108351;1286;22648;-66
2023/03/29 09:12:55;;;;;;;5.20;2.30;;;;;;;-0.31;100.00;99126.70;109784;1286;22291;-65
2023/03/29 09:15:37;;;;;;;5.50;2.70;;;;;;;-0.24;100.00;99126.94;109779;1286;22220;-66
2023/03/29 09:18:28;;;;;;;3.90;2.20;;;;;;;-0.18;100.00;99128.27;109623;1284;133934;-65
2023/03/29 09:21:00;;;;;;;4.00;2.10;;;;;;;-0.06;100.00;99127.36;109883;1284;22203;-65
2023/03/29 09:23:33;;;;;;;2.90;2.00;;;;;;;0.01;100.00;99128.80;109132;1284;24436;-65
2023/03/29 09:26:30;;;;;;;4.90;2.10;;;;;;;0.08;100.00;99134.16;106683;1284;22524;-65
2023/03/29 09:29:40;;;;;;;6.10;2.50;;;;;;;0.20;100.00;99126.89;106747;1284;22526;-65
2023/03/29 09:32:28;;;;;;;3.40;2.00;;;;;;;0.21;100.00;99125.90;106787;1284;24198;-66
2023/03/29 09:35:05;;;;;;;3.90;2.10;;;;;;;0.18;100.00;99140.10;106646;1284;22591;-65
2023/03/29 09:37:36;;;;;;;3.80;2.00;;;;;;;0.18;100.00;99133.99;106199;1284;22539;-65
2023/03/29 09:40:14;;;;;;;3.60;2.10;;;;;;;0.27;100.00;99136.47;106108;1284;22652;-64
2023/03/29 09:42:59;;;;;;;3.10;2.00;;;;;;;0.35;100.00;99142.08;106068;1284;26512;-64
2023/03/29 09:45:30;;;;;;;3.30;2.00;;;;;;;0.33;100.00;99138.96;106118;1284;24261;-65
2023/03/29 09:48:15;;;;;;;3.30;1.90;;;;;;;0.35;100.00;99143.04;106405;1284;22554;-65
2023/03/29 09:50:50;;;;;;;3.90;1.80;;;;;;;0.40;100.00;99141.95;106222;1284;25336;-65
2023/03/29 09:53:19;;;;;;;4.50;2.10;;;;;;;0.39;100.00;99150.02;106561;1284;22546;-65
2023/03/29 09:55:57;;;;;;;3.60;1.90;;;;;;;0.46;100.00;99148.98;106825;1284;26507;-65
2023/03/29 09:58:46;;;;;;;2.50;1.60;;;;;;;0.63;100.00;99158.54;107010;1279;23257;-65
2023/03/29 10:01:24;;;;;;;3.30;2.00;;;;;;;0.70;100.00;99160.90;107082;1280;25007;-65
2023/03/29 10:03:54;;;;;;;5.60;2.30;;;;;;;0.63;100.00;99158.95;106746;1276;25353;-64
2023/03/29 10:06:23;;;;;;;3.70;1.90;;;;;;;0.63;100.00;99163.73;106707;1276;25249;-64
2023/03/29 10:08:59;;;;;;;4.10;1.90;;;;;;;0.75;100.00;99166.23;106553;1276;22791;-65
2023/03/29 10:11:35;;;;;;;9.10;1.80;;;;;;;0.82;100.00;99170.37;106676;1276;22529;-64
2023/03/29 10:14:16;;;;;;;3.70;1.90;;;;;;;0.77;100.00;99171.16;106744;1276;25332;-65
2023/03/29 10:16:47;;;;;;;3.40;1.80;;;;;;;0.66;100.00;99169.21;106673;1276;22530;-64
2023/03/29 10:19:33;;;;;;;3.10;1.70;;;;;;;0.54;100.00;99170.98;106627;1276;22642;-66
2023/03/29 10:22:19;;;;;;;4.50;2.10;;;;;;;0.50;100.00;99174.40;107143;1276;25510;-66
2023/03/29 10:24:52;;;;;;;4.20;2.20;;;;;;;0.58;100.00;99181.50;107151;1276;25513;-66
2023/03/29 10:27:22;;;;;;;4.80;2.00;;;;;;;0.58;100.00;99191.52;107197;1276;24269;-66
2023/03/29 10:29:51;;;;;;;4.50;2.20;;;;;;;0.59;100.00;99195.58;107211;1276;25467;-66
2023/03/29 10:32:19;;;;;;;3.60;2.00;;;;;;;0.66;100.00;99197.95;110269;1276;23136;-67
2023/03/29 10:34:48;;;;;;;2.70;1.70;;;;;;;0.71;100.00;99194.14;110462;1276;22215;-66
2023/03/29 10:37:18;;;;;;;2.80;1.70;;;;;;;0.76;100.00;99200.73;110422;1276;22272;-66
2023/03/29 10:39:46;;;;;;;3.20;1.70;;;;;;;0.77;100.00;99201.17;110249;1276;22227;-66
2023/03/29 10:42:17;;;;;;;5.10;2.10;;;;;;;0.83;100.00;99195.99;110287;1276;22210;-66
2023/03/29 10:44:54;;;;;;;2.60;1.40;;;;;;;0.86;100.00;99198.36;109969;1276;22526;-66
2023/03/29 10:47:22;;;;;;;3.70;2.10;;;;;;;0.88;100.00;99202.21;107217;1276;25489;-66
2023/03/29 10:49:52;;;;;;;3.20;2.00;;;;;;;0.87;100.00;99200.95;107137;1276;22519;-66
2023/03/29 10:52:24;;;;;;;3.30;1.90;;;;;;;0.87;100.00;99208.08;107234;1276;25346;-66
2023/03/29 10:54:54;;;;;;;3.00;1.70;;;;;;;0.89;100.00;99204.55;107155;1276;25480;-66
2023/03/29 10:57:41;;;;;;;2.90;1.70;;;;;;;0.79;100.00;99208.70;107163;1276;25383;-66
2023/03/29 11:00:17;;;;;;;4.00;2.10;;;;;;;0.70;100.00;99204.99;107142;1276;25306;-65
2023/03/29 11:02:51;;;;;;;;;;;;;;;0.72;100.00;99204.61;107357;1276;22523;-66
2023/03/29 11:05:32;;;;;;;3.00;1.70;;;;;;;0.80;100.00;99206.71;107320;1276;24198;-65
2023/03/29 11:08:24;;;;;;;3.30;1.80;;;;;;;0.85;100.00;99208.17;107237;1276;22615;-66
2023/03/29 11:11:21;;;;;;;3.50;1.80;;;;;;;0.90;100.00;99209.45;107040;1276;25318;-64
2023/03/29 11:14:12;;;;;;;4.20;2.00;;;;;;;0.99;100.00;99207.86;107030;1255;25456;-65
2023/03/29 11:17:15;;;;;;;3.40;2.00;;;;;;;0.99;100.00;99206.84;107034;1276;26491;-65
2023/03/29 11:19:58;;;;;;;3.60;2.20;;;;;;;0.94;100.00;99199.47;107137;1276;24354;-65
2023/03/29 11:22:58;;;;;;;3.40;1.70;;;;;;;0.95;100.00;99201.73;106616;1276;22589;-64
2023/03/29 11:25:48;;;;;;;3.00;1.60;;;;;;;1.03;100.00;99200.52;106427;1276;26210;-64
2023/03/29 11:28:27;;;;;;;2.90;1.70;;;;;;;1.05;100.00;99197.73;106478;1276;25460;-64
2023/03/29 11:31:12;;;;;;;5.60;1.90;;;;;;;1.17;100.00;99199.04;106534;1276;25319;-65
2023/03/29 11:33:40;;;;;;;2.70;1.60;;;;;;;1.32;100.00;99200.23;106621;1276;22532;-65
2023/03/29 11:36:20;;;;;;;3.30;1.50;;;;;;;1.42;100.00;99200.15;106841;1276;22950;-64
2023/03/29 11:39:12;;;;;;;3.10;1.80;;;;;;;1.41;100.00;99200.40;106593;1276;26488;-64
2023/03/29 11:41:44;;;;;;;2.90;1.70;;;;;;;1.34;100.00;99195.98;106584;1276;25271;-64
2023/03/29 11:44:13;;;;;;;5.10;1.90;;;;;;;1.21;100.00;99194.98;110399;1276;22262;-65
2023/03/29 11:47:09;;;;;;;3.20;1.80;;;;;;;1.19;100.00;99199.11;110344;1276;23049;-65
2023/03/29 11:49:51;;;;;;;4.40;1.80;;;;;;;1.23;100.00;99200.13;110403;1276;22278;-65
2023/03/29 11:52:31;;;;;;;3.40;1.80;;;;;;;1.19;100.00;99202.08;110403;1276;22697;-65
2023/03/29 11:55:25;;;;;;;3.10;1.70;;;;;;;1.20;100.00;99199.34;110360;1276;22995;-65
2023/03/29 11:58:12;;;;;;;3.40;1.80;;;;;;;1.23;100.00;99201.81;110339;1276;22224;-66
2023/03/29 12:00:47;;;;;;;2.20;1.50;;;;;;;1.19;100.00;99203.19;110405;1276;22187;-65
2023/03/29 12:03:27;;;;;;;3.50;1.50;;;;;;;1.17;100.00;99212.56;110422;1276;22271;-66
2023/03/29 12:06:03;;;;;;;2.00;1.20;;;;;;;1.19;100.00;99215.35;109920;1276;22696;-64
2023/03/29 12:08:38;;;;;;;3.80;1.50;;;;;;;1.25;100.00;99216.98;107182;1276;22630;-64
2023/03/29 12:11:17;;;;;;;3.10;1.70;;;;;;;1.23;100.00;99221.16;106704;1276;22526;-64
2023/03/29 12:13:59;;;;;;;3.30;1.70;;;;;;;1.16;100.00;99220.21;106782;1276;25330;-64
2023/03/29 12:16:35;;;;;;;3.50;1.70;;;;;;;1.06;100.00;99220.86;106690;1276;25227;-64
2023/03/29 12:19:13;;;;;;;3.30;1.60;;;;;;;0.99;100.00;99229.09;106634;1276;23905;-64
2023/03/29 12:21:41;;;;;;;4.00;1.80;;;;;;;1.01;100.00;99230.69;106535;1276;26595;-64
2023/03/29 12:24:12;;;;;;;2.70;1.50;;;;;;;0.89;100.00;99231.02;106657;1276;25343;-64
2023/03/29 12:26:49;;;;;;;3.00;1.30;;;;;;;0.75;100.00;99231.81;106511;1276;25457;-64
2023/03/29 12:29:38;;;;;;;2.00;1.10;;;;;;;0.65;100.00;99241.84;106763;1276;22533;-64
2023/03/29 12:32:15;;;;;;;2.10;1.10;;;;;;;0.63;100.00;99235.67;106771;1276;25483;-65
2023/03/29 12:35:33;;;;;;;2.80;1.10;;;;;;;0.64;100.00;99237.57;106861;1276;25324;-64
2023/03/29 12:38:26;;;;;;;2.10;0.90;;;;;;;0.57;100.00;99240.35;107048;1276;22626;-64
2023/03/29 12:41:17;;;;;;;1.80;1.00;;;;;;;0.49;100.00;99246.30;106785;1276;25546;-65
2023/03/29 12:44:02;;;;;;;2.00;1.00;;;;;;;0.43;100.00;99248.30;106603;1261;25495;-66
2023/03/29 12:46:53;;;;;;;2.80;1.20;;;;;;;0.42;100.00;99252.90;106866;1276;25409;-66
2023/03/29 12:49:21;;;;;;;1.90;1.00;;;;;;;0.42;100.00;99249.14;107196;1276;25347;-66
2023/03/29 12:51:50;;;;;;;3.90;1.50;;;;;;;0.38;100.00;99251.05;107226;1276;25329;-65
2023/03/29 12:54:21;;;;;;;2.30;1.30;;;;;;;0.34;100.00;99254.75;106440;1276;26498;-65
2023/03/29 12:56:55;;;;;;;2.90;1.40;;;;;;;0.33;100.00;99260.11;106402;1276;25346;-65
2023/03/29 12:59:37;;;;;;;2.70;1.50;;;;;;;0.42;100.00;99262.91;106491;1276;27631;-65
2023/03/29 13:02:12;;;;;;;2.90;1.60;;;;;;;0.42;100.00;99256.36;106595;1276;25337;-64
2023/03/29 13:04:41;;;;;;;1.50;0.90;;;;;;;0.36;100.00;99261.86;106661;1276;24317;-64